Time;durP1;ratioP1;P1;durP2;ratioP2;P2;SDS_P1;SDS_P2;PMS_P1;PMS_P2;Temp;Humidity;BMP_temperature;BMP_pressure;BME280_temperature;BME280_humidity;BME280_pressure;Samples;Min_cycle;Max_cycle;Signal;HPM_P1;HPM_P2
2023/07/06 00:00:00;;;;;;;8.80;4.10;;;11.60;99.90;;;;;;5015495;28;20107;-84
2023/07/06 00:02:26;;;;;;;10.13;4.75;;;11.60;99.90;;;;;;5032817;28;20045;-84
2023/07/06 00:04:52;;;;;;;8.25;4.43;;;11.60;99.90;;;;;;5033109;28;20053;-84
2023/07/06 00:07:21;;;;;;;6.25;4.05;;;11.70;99.90;;;;;;5033158;28;20033;-78
2023/07/06 00:09:50;;;;;;;9.77;4.10;;;11.50;99.90;;;;;;5032825;28;20121;-81
2023/07/06 00:12:17;;;;;;;6.82;3.60;;;11.50;99.90;;;;;;5033370;28;20048;-80
2023/07/06 00:14:43;;;;;;;7.13;4.18;;;11.50;99.90;;;;;;5031864;28;20041;-88
2023/07/06 00:17:12;;;;;;;10.60;3.97;;;11.90;99.90;;;;;;5032322;28;20033;-86
2023/07/06 00:19:39;;;;;;;8.55;4.45;;;11.40;99.90;;;;;;5032815;28;20041;-84
2023/07/06 00:22:06;;;;;;;7.88;3.83;;;11.40;99.90;;;;;;5014874;28;20549;-87
2023/07/06 00:24:31;;;;;;;8.25;4.50;;;11.40;99.90;;;;;;5014232;28;20044;-86
2023/07/06 00:26:57;;;;;;;6.85;4.35;;;11.70;99.90;;;;;;5032567;28;20434;-88
2023/07/06 00:29:23;;;;;;;8.23;4.63;;;11.40;99.90;;;;;;5014128;28;20053;-86
2023/07/06 00:31:53;;;;;;;9.55;4.50;;;11.30;99.90;;;;;;5014675;28;20053;-88
2023/07/06 00:34:19;;;;;;;7.70;4.68;;;11.30;99.90;;;;;;5032416;28;20045;-88
2023/07/06 00:36:46;;;;;;;7.55;4.63;;;11.30;99.90;;;;;;5014359;28;20045;-86
2023/07/06 00:39:12;;;;;;;12.02;5.43;;;11.30;99.90;;;;;;5014504;28;20045;-86
2023/07/06 00:41:39;;;;;;;8.60;4.93;;;11.30;99.90;;;;;;5032032;28;20110;-87
2023/07/06 00:44:04;;;;;;;11.68;5.00;;;11.30;99.90;;;;;;5032658;28;20133;-88
2023/07/06 00:46:39;;;;;;;9.90;4.65;;;11.20;99.90;;;;;;5014118;28;20069;-87
2023/07/06 00:49:12;;;;;;;13.38;5.00;;;11.30;99.90;;;;;;5032218;28;20809;-89
2023/07/06 00:51:40;;;;;;;10.35;5.50;;;11.50;99.90;;;;;;5014528;28;20050;-87
2023/07/06 00:54:16;;;;;;;8.05;5.03;;;11.20;99.90;;;;;;5031514;28;20511;-88
2023/07/06 00:56:45;;;;;;;8.55;5.88;;;11.20;99.90;;;;;;5032299;28;20056;-87
2023/07/06 00:59:19;;;;;;;12.52;5.70;;;11.20;99.90;;;;;;5014210;28;20408;-83
2023/07/06 01:01:46;;;;;;;11.50;6.03;;;11.20;99.90;;;;;;5031470;28;20056;-83
2023/07/06 01:04:14;;;;;;;12.13;6.38;;;11.40;99.90;;;;;;5030320;28;20041;-86
2023/07/06 01:06:47;;;;;;;10.73;6.07;;;11.20;99.90;;;;;;5031535;28;20045;-80
2023/07/06 01:09:14;;;;;;;9.55;6.35;;;11.40;99.90;;;;;;5024421;28;20636;-82
2023/07/06 01:11:44;;;;;;;13.27;6.70;;;11.20;99.90;;;;;;5031175;28;20140;-78
2023/07/06 01:14:14;;;;;;;12.52;6.40;;;11.10;99.90;;;;;;5031140;28;20496;-79
2023/07/06 01:16:51;;;;;;;14.90;7.88;;;11.20;99.90;;;;;;5031267;28;20041;-77
2023/07/06 01:19:45;;;;;;;15.88;6.72;;;11.20;99.90;;;;;;5023287;28;20048;-85
2023/07/06 01:22:51;;;;;;;9.82;6.75;;;11.30;99.90;;;;;;5030749;28;20088;-81
2023/07/06 01:25:26;;;;;;;;;;;11.20;99.90;;;;;;4951075;29;20120;-79
2023/07/06 01:28:22;;;;;;;16.20;8.50;;;11.30;99.90;;;;;;4950648;29;19962;-83
2023/07/06 01:31:26;;;;;;;16.17;8.13;;;11.20;99.90;;;;;;4921779;29;20745;-83
2023/07/06 01:34:09;;;;;;;12.57;6.82;;;11.20;99.90;;;;;;4931518;29;20055;-81
2023/07/06 01:36:41;;;;;;;12.50;7.15;;;11.20;99.90;;;;;;4931593;29;20059;-81
2023/07/06 01:39:12;;;;;;;10.55;6.97;;;11.20;99.90;;;;;;4931559;29;20047;-83
2023/07/06 01:41:40;;;;;;;15.85;7.30;;;11.20;99.90;;;;;;4931107;29;20095;-81
2023/07/06 01:44:14;;;;;;;17.08;7.68;;;11.20;99.90;;;;;;4931106;29;20099;-84
2023/07/06 01:46:49;;;;;;;12.03;7.40;;;11.20;99.90;;;;;;4915313;29;20067;-82
2023/07/06 01:49:16;;;;;;;12.65;7.45;;;11.50;99.90;;;;;;4930909;29;20083;-79
2023/07/06 01:51:56;;;;;;;12.23;6.88;;;11.60;99.90;;;;;;4931323;29;20134;-84
2023/07/06 01:54:29;;;;;;;18.42;8.38;;;11.40;99.90;;;;;;4930609;29;20597;-82
2023/07/06 01:57:04;;;;;;;10.60;7.28;;;11.30;99.90;;;;;;4912075;29;20107;-77
2023/07/06 01:59:32;;;;;;;;;;;11.40;99.90;;;;;;4921613;29;20054;-79
2023/07/06 02:02:01;;;;;;;12.57;7.68;;;11.30;99.90;;;;;;4971035;28;19975;-77
2023/07/06 02:04:32;;;;;;;14.13;7.78;;;11.40;99.90;;;;;;5011853;28;20081;-83
2023/07/06 02:07:01;;;;;;;10.10;7.25;;;11.40;99.90;;;;;;5029158;28;20049;-81
2023/07/06 02:09:26;;;;;;;13.55;8.38;;;11.40;99.90;;;;;;5030412;28;20061;-84
2023/07/06 02:11:52;;;;;;;14.18;8.57;;;11.50;99.90;;;;;;5012223;28;20052;-84
2023/07/06 02:14:19;;;;;;;15.23;8.07;;;11.40;99.90;;;;;;5030320;28;20481;-84
2023/07/06 02:16:45;;;;;;;11.13;7.55;;;11.50;99.90;;;;;;5012560;28;20089;-86
2023/07/06 02:19:11;;;;;;;14.27;8.38;;;11.40;99.90;;;;;;5029671;28;20452;-87
2023/07/06 02:21:38;;;;;;;11.23;7.30;;;11.40;99.90;;;;;;5030382;28;20033;-82
2023/07/06 02:24:07;;;;;;;21.45;7.97;;;11.40;99.90;;;;;;5012279;28;20164;-81
2023/07/06 02:26:32;;;;;;;13.05;8.18;;;11.40;99.90;;;;;;5029554;28;20069;-86
2023/07/06 02:28:58;;;;;;;26.52;8.75;;;11.40;99.90;;;;;;5010613;28;20076;-87
2023/07/06 02:31:23;;;;;;;18.10;8.82;;;11.60;99.90;;;;;;5035073;28;20060;-85
2023/07/06 02:33:49;;;;;;;12.52;8.20;;;11.40;99.90;;;;;;5049816;28;20041;-84
2023/07/06 02:36:16;;;;;;;15.07;8.68;;;11.50;99.90;;;;;;5038844;28;20045;-79
2023/07/06 02:38:42;;;;;;;15.80;8.75;;;11.40;99.90;;;;;;5016684;28;20136;-79
2023/07/06 02:41:07;;;;;;;13.88;8.45;;;11.40;99.90;;;;;;5049144;28;20462;-79
2023/07/06 02:43:33;;;;;;;15.20;8.35;;;11.40;99.90;;;;;;5038122;28;20066;-85
2023/07/06 02:45:59;;;;;;;16.45;8.65;;;11.40;99.90;;;;;;5049435;28;20041;-81
2023/07/06 02:48:25;;;;;;;14.30;7.80;;;11.40;99.90;;;;;;5049557;28;20080;-79
2023/07/06 02:50:51;;;;;;;13.63;8.38;;;11.50;99.90;;;;;;5033827;28;20083;-82
2023/07/06 02:53:18;;;;;;;13.30;8.20;;;11.40;99.90;;;;;;5040476;28;20068;-83
2023/07/06 02:55:48;;;;;;;11.40;8.18;;;11.40;99.90;;;;;;5047449;28;20126;-84
2023/07/06 02:58:14;;;;;;;14.48;8.25;;;12.00;99.90;;;;;;5050037;28;20033;-85
2023/07/06 03:00:39;;;;;;;14.75;8.35;;;11.30;99.90;;;;;;5049875;28;20511;-86
2023/07/06 03:03:07;;;;;;;14.35;8.20;;;11.40;99.90;;;;;;5044925;28;20041;-82
2023/07/06 03:05:35;;;;;;;13.57;8.70;;;11.40;99.90;;;;;;5049708;28;20115;-87
2023/07/06 03:08:02;;;;;;;15.25;8.50;;;11.50;99.90;;;;;;5049709;28;20088;-87
2023/07/06 03:10:27;;;;;;;11.30;7.50;;;11.30;99.90;;;;;;5047649;28;20043;-86
2023/07/06 03:12:54;;;;;;;13.68;8.00;;;11.30;99.90;;;;;;5048871;28;20471;-80
2023/07/06 03:15:20;;;;;;;13.65;7.78;;;11.30;99.90;;;;;;5049301;28;20090;-82
2023/07/06 03:17:50;;;;;;;11.40;8.20;;;11.20;99.90;;;;;;5049197;28;20060;-87
2023/07/06 03:20:21;;;;;;;11.73;7.80;;;11.40;99.90;;;;;;5047368;28;20435;-87
2023/07/06 03:22:48;;;;;;;13.02;7.85;;;11.30;99.90;;;;;;5039317;28;20052;-86
2023/07/06 03:25:16;;;;;;;11.18;7.05;;;11.40;99.90;;;;;;5049002;28;20488;-81
2023/07/06 03:27:43;;;;;;;14.48;8.00;;;11.20;99.90;;;;;;5051271;28;20687;-79
2023/07/06 03:30:11;;;;;;;14.50;8.15;;;11.30;99.90;;;;;;5038297;28;20072;-85
2023/07/06 03:32:37;;;;;;;15.65;8.43;;;11.30;99.90;;;;;;5039660;28;20442;-87
2023/07/06 03:35:09;;;;;;;19.33;8.65;;;11.30;99.90;;;;;;5042528;28;20120;-85
2023/07/06 03:37:37;;;;;;;13.80;8.05;;;11.30;99.90;;;;;;5045038;28;20512;-85
2023/07/06 03:40:10;;;;;;;18.05;7.72;;;11.60;99.90;;;;;;5053284;28;20628;-86
2023/07/06 03:42:40;;;;;;;14.20;7.30;;;11.40;99.90;;;;;;5053288;28;20041;-86
2023/07/06 03:45:07;;;;;;;17.05;7.85;;;11.30;99.90;;;;;;5052400;28;20103;-87
2023/07/06 03:47:33;;;;;;;14.40;7.95;;;11.40;99.90;;;;;;5052878;28;20178;-86
2023/07/06 03:49:59;;;;;;;11.55;7.43;;;11.40;99.90;;;;;;5052835;28;20087;-84
2023/07/06 03:52:27;;;;;;;16.92;7.80;;;11.40;99.90;;;;;;5052607;28;20563;-85
2023/07/06 03:54:53;;;;;;;11.32;6.90;;;11.40;99.90;;;;;;5045117;28;20116;-85
2023/07/06 03:57:19;;;;;;;15.73;7.72;;;11.50;99.90;;;;;;5052627;28;20649;-88
2023/07/06 03:59:45;;;;;;;12.30;7.97;;;11.80;99.90;;;;;;5052790;28;20084;-86
2023/07/06 04:02:12;;;;;;;13.60;6.80;;;11.50;99.90;;;;;;5051902;28;20091;-86
2023/07/06 04:04:41;;;;;;;14.30;7.45;;;11.60;99.90;;;;;;5052332;28;20144;-86
2023/07/06 04:07:07;;;;;;;12.32;8.13;;;11.60;99.90;;;;;;5052097;28;20049;-77
2023/07/06 04:09:33;;;;;;;19.50;7.80;;;11.60;99.90;;;;;;5053038;28;20056;-77
2023/07/06 04:12:00;;;;;;;15.68;7.75;;;11.60;99.90;;;;;;5052763;28;20622;-81
2023/07/06 04:14:26;;;;;;;13.23;7.30;;;11.70;99.90;;;;;;5052220;28;20045;-84
2023/07/06 04:16:54;;;;;;;14.88;7.80;;;11.80;99.90;;;;;;5051918;28;20045;-84
2023/07/06 04:19:20;;;;;;;13.20;7.20;;;12.10;99.90;;;;;;5052169;28;20044;-86
2023/07/06 04:21:45;;;;;;;11.73;7.43;;;12.30;99.90;;;;;;5052097;28;20048;-80
2023/07/06 04:24:11;;;;;;;13.90;7.53;;;11.80;99.90;;;;;;5052100;28;20049;-83
2023/07/06 04:26:37;;;;;;;13.82;7.28;;;11.80;99.90;;;;;;5052121;28;20033;-84
2023/07/06 04:29:09;;;;;;;12.80;7.40;;;12.30;99.90;;;;;;5042684;28;20045;-82
2023/07/06 04:31:36;;;;;;;14.85;8.15;;;12.10;99.90;;;;;;5049543;28;20112;-79
2023/07/06 04:34:03;;;;;;;15.43;7.75;;;12.20;99.90;;;;;;5052494;28;20404;-86
2023/07/06 04:36:31;;;;;;;15.13;8.02;;;12.10;99.90;;;;;;5051636;28;20112;-78
2023/07/06 04:38:58;;;;;;;13.30;7.70;;;12.10;99.90;;;;;;5050447;28;20492;-85
2023/07/06 04:41:25;;;;;;;15.27;8.05;;;12.10;99.90;;;;;;5046685;28;20550;-77
2023/07/06 04:43:52;;;;;;;14.30;7.47;;;12.10;99.90;;;;;;5045940;28;20049;-84
2023/07/06 04:46:20;;;;;;;15.38;7.40;;;12.10;99.90;;;;;;5049145;28;20045;-81
2023/07/06 04:48:47;;;;;;;14.95;7.95;;;12.30;99.90;;;;;;5048453;28;20051;-80
2023/07/06 04:51:12;;;;;;;15.60;8.75;;;12.20;99.90;;;;;;5043697;28;20048;-86
2023/07/06 04:53:38;;;;;;;16.50;8.48;;;12.30;99.90;;;;;;5051953;28;20119;-86
2023/07/06 04:56:05;;;;;;;18.15;9.02;;;12.40;99.90;;;;;;5045312;28;20433;-82
2023/07/06 04:58:31;;;;;;;17.48;8.80;;;12.30;99.90;;;;;;5044202;28;20361;-80
2023/07/06 05:00:57;;;;;;;13.20;8.50;;;12.40;99.90;;;;;;5041962;28;20153;-86
2023/07/06 05:03:23;;;;;;;12.75;8.52;;;12.40;99.90;;;;;;5042485;28;20120;-85
2023/07/06 05:05:48;;;;;;;14.70;8.43;;;12.40;99.90;;;;;;5043610;28;20086;-82
2023/07/06 05:08:19;;;;;;;12.10;7.70;;;12.40;99.90;;;;;;5046637;28;20385;-84
2023/07/06 05:10:49;;;;;;;14.60;7.72;;;12.60;99.90;;;;;;5049136;28;20496;-83
2023/07/06 05:13:15;;;;;;;15.30;8.38;;;12.40;99.90;;;;;;5037899;28;20087;-84
2023/07/06 05:15:40;;;;;;;16.27;9.20;;;12.40;99.90;;;;;;5047008;28;20041;-86
2023/07/06 05:18:06;;;;;;;16.63;9.15;;;12.50;99.90;;;;;;5044662;28;20045;-88
2023/07/06 05:20:32;;;;;;;15.18;8.15;;;12.50;99.90;;;;;;5045395;28;20131;-79
2023/07/06 05:22:58;;;;;;;16.52;8.82;;;12.60;99.90;;;;;;5051283;28;20610;-82
2023/07/06 05:25:26;;;;;;;14.88;9.30;;;12.60;99.90;;;;;;5038747;28;20040;-83
2023/07/06 05:27:52;;;;;;;21.08;9.98;;;12.70;99.90;;;;;;5048615;28;20045;-82
2023/07/06 05:30:18;;;;;;;17.10;9.63;;;12.80;99.90;;;;;;5045421;28;20542;-84
2023/07/06 05:32:44;;;;;;;15.32;9.20;;;12.90;99.90;;;;;;5038334;28;20053;-82
2023/07/06 05:35:10;;;;;;;20.15;10.05;;;12.90;99.90;;;;;;5046280;28;20104;-80
2023/07/06 05:37:36;;;;;;;19.77;10.80;;;13.00;99.90;;;;;;5049820;28;20042;-80
2023/07/06 05:40:04;;;;;;;18.63;10.43;;;13.10;99.90;;;;;;5032104;28;20459;-81
2023/07/06 05:42:31;;;;;;;18.98;10.65;;;13.20;99.90;;;;;;5041211;28;20049;-83
2023/07/06 05:44:57;;;;;;;20.05;10.05;;;13.30;99.90;;;;;;5026063;28;20149;-86
2023/07/06 05:47:22;;;;;;;23.98;10.43;;;13.50;99.90;;;;;;5041731;28;20470;-83
2023/07/06 05:49:48;;;;;;;17.30;10.02;;;13.60;99.90;;;;;;5021539;28;20404;-89
2023/07/06 05:52:14;;;;;;;22.95;10.90;;;13.60;99.90;;;;;;5016578;28;20053;-86
2023/07/06 05:54:39;;;;;;;23.83;11.27;;;13.80;99.90;;;;;;5048513;28;20052;-83
2023/07/06 05:57:08;;;;;;;19.88;9.90;;;13.90;99.90;;;;;;5043526;28;20040;-83
2023/07/06 05:59:36;;;;;;;18.60;9.70;;;14.00;99.90;;;;;;5036291;28;20475;-83
2023/07/06 06:02:03;;;;;;;21.05;10.35;;;14.10;99.90;;;;;;5046321;28;20088;-87
2023/07/06 06:04:30;;;;;;;19.67;9.70;;;14.20;99.90;;;;;;5032157;28;20045;-85
2023/07/06 06:06:56;;;;;;;23.73;9.77;;;14.30;99.90;;;;;;5050436;28;20048;-84
2023/07/06 06:09:24;;;;;;;22.05;10.32;;;14.50;99.90;;;;;;5044862;28;20415;-79
2023/07/06 06:11:50;;;;;;;21.23;10.73;;;14.60;99.90;;;;;;5043925;28;20044;-81
2023/07/06 06:14:17;;;;;;;18.42;9.45;;;14.70;99.90;;;;;;5048314;28;20052;-84
2023/07/06 06:16:43;;;;;;;17.10;9.13;;;14.80;99.90;;;;;;5045790;28;20130;-80
2023/07/06 06:19:09;;;;;;;22.70;9.88;;;15.00;99.90;;;;;;5045637;28;20520;-86
2023/07/06 06:21:35;;;;;;;22.13;9.88;;;15.10;99.90;;;;;;5045956;28;20086;-83
2023/07/06 06:24:02;;;;;;;21.55;10.63;;;15.30;99.90;;;;;;5014738;28;20536;-86
2023/07/06 06:26:29;;;;;;;18.65;11.50;;;15.30;99.90;;;;;;5046333;28;20508;-80
2023/07/06 06:28:57;;;;;;;20.75;9.85;;;15.50;99.90;;;;;;5047277;28;20411;-84
2023/07/06 06:31:24;;;;;;;19.17;9.52;;;15.60;99.90;;;;;;5039987;28;20052;-82
2023/07/06 06:33:49;;;;;;;25.02;10.15;;;15.80;99.90;;;;;;5037815;28;20076;-85
2023/07/06 06:36:19;;;;;;;24.15;8.63;;;15.90;99.90;;;;;;5037920;28;20115;-82
2023/07/06 06:38:45;;;;;;;22.42;9.93;;;16.00;99.90;;;;;;5048727;28;20049;-82
2023/07/06 06:41:11;;;;;;;17.42;9.20;;;16.30;99.90;;;;;;5049797;28;20814;-80
2023/07/06 06:43:38;;;;;;;20.10;9.73;;;16.40;99.90;;;;;;5038684;28;20092;-84
2023/07/06 06:46:05;;;;;;;29.05;8.88;;;16.60;99.90;;;;;;5040332;28;20124;-83
2023/07/06 06:48:32;;;;;;;22.10;8.80;;;16.80;99.90;;;;;;5047172;28;20057;-83
2023/07/06 06:50:59;;;;;;;19.58;8.55;;;16.90;99.90;;;;;;5049844;28;20392;-81
2023/07/06 06:53:26;;;;;;;18.25;8.55;;;17.00;99.90;;;;;;5050014;28;20076;-83
2023/07/06 06:55:52;;;;;;;17.73;9.05;;;17.10;99.90;;;;;;5042104;28;20044;-83
2023/07/06 06:58:18;;;;;;;21.00;7.75;;;17.50;99.90;;;;;;5042188;28;20064;-82
2023/07/06 07:00:44;;;;;;;17.42;8.15;;;17.60;99.90;;;;;;5034135;28;20054;-82
2023/07/06 07:03:11;;;;;;;21.30;8.75;;;17.80;99.90;;;;;;5047917;28;20048;-80
2023/07/06 07:05:37;;;;;;;17.65;7.30;;;18.10;99.90;;;;;;5047979;28;20053;-82
2023/07/06 07:08:03;;;;;;;16.85;7.30;;;18.30;99.90;;;;;;5036593;28;20037;-81
2023/07/06 07:10:29;;;;;;;14.25;6.88;;;18.50;99.90;;;;;;5043868;28;20127;-76
2023/07/06 07:12:55;;;;;;;11.50;6.78;;;18.80;99.90;;;;;;5049265;28;20044;-76
2023/07/06 07:15:21;;;;;;;15.75;6.25;;;19.00;99.90;;;;;;5049746;28;20068;-81
2023/07/06 07:17:47;;;;;;;13.02;4.80;;;19.10;99.90;;;;;;5049513;28;20045;-78
2023/07/06 07:20:14;;;;;;;13.20;4.75;;;19.30;99.90;;;;;;5040273;28;20044;-78
2023/07/06 07:22:40;;;;;;;14.27;5.22;;;19.50;99.90;;;;;;5044996;28;20389;-81
2023/07/06 07:25:07;;;;;;;16.05;5.05;;;19.50;99.90;;;;;;5048267;28;20064;-79
2023/07/06 07:27:35;;;;;;;13.43;4.45;;;19.80;99.90;;;;;;5044421;28;20041;-77
2023/07/06 07:30:04;;;;;;;11.18;4.28;;;19.80;99.90;;;;;;5045735;28;20053;-81
2023/07/06 07:32:30;;;;;;;11.00;4.50;;;20.00;99.90;;;;;;5031204;28;20052;-80
2023/07/06 07:34:57;;;;;;;12.75;5.25;;;20.30;99.90;;;;;;5049174;28;20056;-79
2023/07/06 07:37:23;;;;;;;6.93;2.55;;;20.40;99.90;;;;;;5030984;28;20049;-77
2023/07/06 07:39:48;;;;;;;8.57;2.50;;;20.40;99.90;;;;;;5048580;28;20056;-84
2023/07/06 07:42:16;;;;;;;6.18;2.05;;;20.30;99.90;;;;;;5022485;28;20045;-84
2023/07/06 07:44:44;;;;;;;7.30;2.50;;;20.20;99.90;;;;;;5048469;28;20496;-83
2023/07/06 07:47:18;;;;;;;9.30;2.58;;;20.40;99.90;;;;;;5048667;28;20045;-85
2023/07/06 07:49:45;;;;;;;6.30;1.98;;;20.40;99.90;;;;;;5030765;28;20071;-78
2023/07/06 07:52:12;;;;;;;4.07;1.88;;;20.50;99.90;;;;;;5031101;28;20496;-79
2023/07/06 07:54:39;;;;;;;5.97;1.73;;;20.60;99.90;;;;;;5036995;28;20115;-82
2023/07/06 07:57:05;;;;;;;8.18;1.75;;;20.70;99.90;;;;;;5042014;28;20080;-80
2023/07/06 07:59:33;;;;;;;7.22;1.20;;;20.70;99.90;;;;;;5031672;28;20496;-78
2023/07/06 08:01:59;;;;;;;11.43;2.17;;;20.70;99.90;;;;;;5046042;28;20100;-76
2023/07/06 08:04:24;;;;;;;13.77;2.88;;;20.50;99.90;;;;;;5040121;28;20619;-77
2023/07/06 08:06:50;;;;;;;7.88;2.42;;;20.50;99.90;;;;;;5044359;28;20048;-76
2023/07/06 08:09:17;;;;;;;9.75;3.08;;;20.70;99.90;;;;;;5023358;28;20058;-80
2023/07/06 08:11:45;;;;;;;6.20;1.88;;;20.60;99.90;;;;;;5046441;28;20076;-79
2023/07/06 08:14:11;;;;;;;11.02;2.60;;;20.50;99.90;;;;;;5052037;28;20103;-81
2023/07/06 08:16:40;;;;;;;9.52;2.08;;;20.50;99.90;;;;;;5035480;28;20076;-81
2023/07/06 08:19:07;;;;;;;8.10;2.55;;;20.30;99.90;;;;;;5052857;28;20052;-79
2023/07/06 08:21:33;;;;;;;5.32;2.00;;;20.30;99.90;;;;;;5052703;28;20037;-77
2023/07/06 08:24:00;;;;;;;9.50;2.30;;;20.00;99.90;;;;;;5053038;28;20068;-78
2023/07/06 08:26:29;;;;;;;6.90;2.53;;;19.90;99.90;;;;;;5052854;28;20090;-75
2023/07/06 08:28:55;;;;;;;11.27;2.60;;;19.90;99.90;;;;;;5052952;28;20060;-79
2023/07/06 08:31:21;;;;;;;9.52;2.60;;;19.70;99.90;;;;;;5044239;28;20048;-82
2023/07/06 08:33:48;;;;;;;6.32;2.00;;;19.90;99.90;;;;;;5052314;28;20493;-78
2023/07/06 08:36:15;;;;;;;8.20;1.73;;;20.00;99.90;;;;;;5052380;28;20056;-79
2023/07/06 08:38:43;;;;;;;11.90;1.60;;;19.90;99.90;;;;;;5052937;28;20049;-82
2023/07/06 08:41:34;;;;;;;8.23;1.80;;;19.90;99.90;;;;;;5052342;28;20480;-77
2023/07/06 08:44:02;;;;;;;10.75;2.03;;;20.00;99.90;;;;;;5046993;28;20080;-83
2023/07/06 08:46:36;;;;;;;6.20;1.27;;;20.20;99.90;;;;;;5052097;28;20071;-80
2023/07/06 08:49:03;;;;;;;5.25;2.05;;;20.20;99.90;;;;;;5052557;28;20041;-80
2023/07/06 08:51:34;;;;;;;6.57;1.45;;;20.10;99.90;;;;;;5052053;28;20033;-81
2023/07/06 08:54:02;;;;;;;4.13;1.63;;;20.20;99.90;;;;;;5052988;28;20048;-90
2023/07/06 08:56:36;;;;;;;6.00;1.42;;;20.10;99.90;;;;;;5053872;28;20052;-84
2023/07/06 08:59:07;;;;;;;6.18;1.52;;;20.20;99.90;;;;;;5046942;28;20055;-82
2023/07/06 09:01:36;;;;;;;6.03;1.40;;;20.10;99.90;;;;;;5052502;28;20083;-82
2023/07/06 09:04:14;;;;;;;5.25;1.50;;;19.90;99.90;;;;;;5044173;28;20095;-87
2023/07/06 09:06:45;;;;;;;7.93;2.00;;;19.90;99.90;;;;;;5052759;28;20083;-91
2023/07/06 09:09:10;;;;;;;3.63;1.10;;;20.00;99.90;;;;;;5052710;28;20036;-86
2023/07/06 09:11:37;;;;;;;3.95;1.17;;;20.00;99.90;;;;;;5041718;28;20049;-81
2023/07/06 09:14:10;;;;;;;4.40;1.10;;;20.30;99.90;;;;;;5044557;28;20492;-88
2023/07/06 09:16:44;;;;;;;5.78;1.20;;;20.20;99.90;;;;;;5050177;28;20044;-85
2023/07/06 09:19:10;;;;;;;4.15;1.10;;;20.10;99.90;;;;;;5052404;28;20077;-82
2023/07/06 09:21:36;;;;;;;4.15;1.10;;;20.00;99.90;;;;;;5041404;28;20431;-84
2023/07/06 09:24:02;;;;;;;4.90;1.63;;;19.90;99.90;;;;;;5045328;28;20052;-82
2023/07/06 09:26:34;;;;;;;8.23;1.42;;;20.00;99.90;;;;;;5037617;28;20395;-87
2023/07/06 09:29:20;;;;;;;7.97;1.55;;;20.30;99.90;;;;;;5052547;28;20483;-88
2023/07/06 09:31:47;;;;;;;5.68;1.65;;;20.40;99.90;;;;;;5045905;28;20056;-79
2023/07/06 09:34:32;;;;;;;6.40;1.70;;;20.70;99.90;;;;;;5044591;28;20782;-86
2023/07/06 09:36:59;;;;;;;8.35;1.88;;;20.80;99.90;;;;;;5045679;28;20055;-81
2023/07/06 09:39:25;;;;;;;6.00;1.35;;;20.80;99.90;;;;;;5050992;28;20040;-85
2023/07/06 09:41:52;;;;;;;3.33;1.17;;;20.80;99.90;;;;;;5043148;28;20492;-86
2023/07/06 09:44:29;;;;;;;5.30;1.63;;;20.90;99.90;;;;;;5033592;28;20045;-90
2023/07/06 09:46:59;;;;;;;4.28;1.67;;;20.90;99.90;;;;;;5050197;28;20128;-80
2023/07/06 09:49:53;;;;;;;4.43;1.42;;;20.70;99.90;;;;;;5049196;28;20103;-85
2023/07/06 09:52:20;;;;;;;5.90;1.25;;;20.50;99.90;;;;;;5043061;28;20499;-83
2023/07/06 09:54:58;;;;;;;5.95;1.23;;;20.50;99.90;;;;;;5031469;28;20099;-82
2023/07/06 09:57:27;;;;;;;5.75;1.20;;;20.40;99.90;;;;;;5041492;28;20079;-78
2023/07/06 09:59:53;;;;;;;4.88;1.30;;;20.40;99.90;;;;;;5051448;28;20087;-80
2023/07/06 10:02:51;;;;;;;6.78;1.08;;;20.20;99.90;;;;;;5050834;28;20076;-85
2023/07/06 10:05:26;;;;;;;4.03;1.38;;;20.10;99.90;;;;;;5034029;28;20116;-81
2023/07/06 10:08:14;;;;;;;5.47;1.10;;;20.50;99.90;;;;;;5048818;28;20076;-84
2023/07/06 10:11:05;;;;;;;4.10;1.00;;;20.80;99.90;;;;;;5049741;28;20056;-78
2023/07/06 10:13:53;;;;;;;2.95;0.90;;;20.80;99.90;;;;;;5038311;28;20049;-85
2023/07/06 10:16:52;;;;;;;5.55;1.10;;;21.20;99.90;;;;;;5035519;28;20563;-85
2023/07/06 10:19:46;;;;;;;3.22;0.93;;;21.40;99.90;;;;;;5046184;28;20044;-87
2023/07/06 10:22:20;;;;;;;6.63;0.90;;;21.70;99.90;;;;;;5044817;28;20061;-86
2023/07/06 10:24:55;;;;;;;3.47;1.20;;;21.90;99.90;;;;;;5050922;28;20311;-87
2023/07/06 10:27:33;;;;;;;8.48;1.45;;;22.00;99.90;;;;;;5050245;28;20531;-85
2023/07/06 10:30:08;;;;;;;8.07;1.42;;;22.20;99.90;;;;;;5033526;28;20775;-84
2023/07/06 10:32:41;;;;;;;4.97;1.52;;;22.50;99.90;;;;;;5041854;28;20557;-87
2023/07/06 10:35:19;;;;;;;2.47;1.13;;;22.60;99.90;;;;;;5047502;28;20033;-81
2023/07/06 10:37:47;;;;;;;6.75;1.25;;;22.60;99.90;;;;;;5024080;28;20076;-81
2023/07/06 10:40:23;;;;;;;2.05;0.75;;;22.70;99.90;;;;;;5048063;28;20052;-85
2023/07/06 10:43:14;;;;;;;4.53;0.85;;;22.80;99.90;;;;;;5042549;28;20128;-81
2023/07/06 10:45:39;;;;;;;4.70;1.17;;;22.90;99.90;;;;;;5031964;28;20486;-78
2023/07/06 10:48:15;;;;;;;3.78;1.00;;;22.70;99.90;;;;;;5007048;28;20128;-84
2023/07/06 10:50:47;;;;;;;4.63;1.27;;;22.60;99.90;;;;;;5030668;28;20091;-87
2023/07/06 10:53:44;;;;;;;3.20;0.90;;;22.90;99.90;;;;;;5032088;28;20045;-83
2023/07/06 10:56:22;;;;;;;3.83;1.33;;;22.90;99.90;;;;;;4970874;28;20050;-82
2023/07/06 10:58:57;;;;;;;4.43;1.00;;;23.10;99.90;;;;;;4970449;28;20097;-88
2023/07/06 11:01:50;;;;;;;;;;;23.20;99.90;;;;;;4969380;28;20061;-83
2023/07/06 11:04:41;;;;;;;3.58;1.30;;;23.10;99.90;;;;;;4960866;28;19932;-84
2023/07/06 11:07:35;;;;;;;4.53;1.20;;;22.80;99.90;;;;;;4926082;29;20132;-81
2023/07/06 11:10:12;;;;;;;3.08;1.05;;;22.70;99.90;;;;;;4967992;28;20145;-81
2023/07/06 11:13:04;;;;;;;4.82;1.20;;;22.30;99.90;;;;;;4937161;28;20035;-82
2023/07/06 11:15:51;;;;;;;4.60;1.10;;;22.00;99.90;;;;;;4962838;28;20053;-81
2023/07/06 11:18:25;;;;;;;3.33;1.30;;;21.80;99.90;;;;;;4968420;28;20073;-82
2023/07/06 11:21:02;;;;;;;4.57;1.13;;;21.60;99.90;;;;;;4968258;28;20093;-81
2023/07/06 11:23:52;;;;;;;5.60;1.25;;;21.50;99.90;;;;;;4960563;28;20046;-78
2023/07/06 11:26:38;;;;;;;5.38;1.20;;;21.20;99.90;;;;;;4967926;28;20621;-80
2023/07/06 11:29:08;;;;;;;4.55;1.30;;;21.10;99.90;;;;;;4968199;28;20054;-80
2023/07/06 11:31:45;;;;;;;7.07;1.48;;;21.00;99.90;;;;;;4947488;28;20082;-78
2023/07/06 11:34:28;;;;;;;5.03;1.35;;;20.90;99.90;;;;;;5018594;28;20057;-79
2023/07/06 11:37:04;;;;;;;5.30;1.20;;;20.80;99.90;;;;;;5023793;28;20041;-78
2023/07/06 11:39:46;;;;;;;7.40;1.40;;;20.80;99.90;;;;;;5049203;28;20114;-81
2023/07/06 11:42:44;;;;;;;5.03;1.83;;;21.00;99.90;;;;;;5031166;28;20060;-81
2023/07/06 11:45:27;;;;;;;3.67;1.60;;;21.50;99.90;;;;;;5026002;28;20078;-78
2023/07/06 11:48:07;;;;;;;4.57;1.50;;;21.50;99.90;;;;;;5026826;28;20057;-80
2023/07/06 11:50:37;;;;;;;7.25;1.88;;;21.40;99.90;;;;;;5027106;28;20108;-78
2023/07/06 11:53:17;;;;;;;7.15;1.52;;;21.20;99.90;;;;;;5035115;28;20060;-80
2023/07/06 11:55:54;;;;;;;13.15;3.13;;;21.10;99.90;;;;;;5045277;28;20052;-79
2023/07/06 11:58:43;;;;;;;5.30;1.60;;;21.00;99.90;;;;;;5047751;28;20041;-80
2023/07/06 12:01:20;;;;;;;4.43;1.45;;;20.90;99.90;;;;;;5013180;28;20111;-81
2023/07/06 12:03:47;;;;;;;4.53;1.35;;;20.90;99.90;;;;;;5034545;28;20052;-82
2023/07/06 12:06:17;;;;;;;5.90;1.88;;;20.90;99.90;;;;;;5051824;28;20124;-80
2023/07/06 12:08:45;;;;;;;5.07;1.33;;;20.80;99.90;;;;;;5050168;28;20044;-81
2023/07/06 12:11:22;;;;;;;5.85;1.27;;;20.80;99.90;;;;;;5034978;28;20045;-78
2023/07/06 12:13:52;;;;;;;3.65;1.17;;;20.90;99.90;;;;;;5052786;28;20385;-77
2023/07/06 12:16:27;;;;;;;4.72;1.25;;;21.10;99.90;;;;;;5052403;28;20052;-79
2023/07/06 12:19:05;;;;;;;3.33;0.70;;;21.60;99.90;;;;;;5034734;28;20110;-80
2023/07/06 12:21:50;;;;;;;1.80;0.63;;;21.70;99.90;;;;;;5052313;28;20041;-77
2023/07/06 12:24:20;;;;;;;11.15;1.73;;;22.00;99.90;;;;;;5052303;28;20056;-79
2023/07/06 12:26:51;;;;;;;2.90;0.85;;;22.30;99.90;;;;;;5058731;28;20123;-80
2023/07/06 12:29:26;;;;;;;5.25;1.08;;;22.50;99.90;;;;;;5054597;28;20499;-79
2023/07/06 12:31:54;;;;;;;2.50;0.93;;;22.70;99.90;;;;;;5048118;28;22036;-79
2023/07/06 12:34:30;;;;;;;3.70;1.00;;;22.80;99.90;;;;;;5018356;28;20057;-86
2023/07/06 12:37:00;;;;;;;3.90;0.80;;;22.90;99.90;;;;;;5037608;28;20498;-80
2023/07/06 12:39:27;;;;;;;4.28;0.80;;;23.10;99.90;;;;;;5065591;28;20059;-83
2023/07/06 12:41:54;;;;;;;3.88;0.93;;;23.20;99.60;;;;;;5036953;28;20364;-77
2023/07/06 12:44:22;;;;;;;3.45;0.70;;;23.20;99.80;;;;;;5068222;28;20174;-81
2023/07/06 12:46:51;;;;;;;3.55;1.00;;;23.40;99.90;;;;;;5064809;28;20458;-76
2023/07/06 12:49:22;;;;;;;5.20;0.70;;;23.50;99.70;;;;;;5058043;28;20123;-75
2023/07/06 12:51:56;;;;;;;3.65;0.73;;;23.20;98.20;;;;;;5062328;28;20052;-77
2023/07/06 12:54:26;;;;;;;;;;;23.10;98.70;;;;;;5063703;28;20040;-83
2023/07/06 12:57:22;;;;;;;6.32;0.77;;;23.10;98.90;;;;;;5064048;28;19925;-76
2023/07/06 12:59:53;;;;;;;2.95;0.85;;;23.00;97.90;;;;;;5062135;28;20036;-76